sensor_id;sensor_type;location;lat;lon;timestamp;pressure;altitude;pressure_sealevel;temperature;humidity
8697;BME280;4385;48.848;8.924;2022-11-14T00:02:10;97335.50;;;17.10;100.00
8697;BME280;4385;48.848;8.924;2022-11-14T00:04:36;97331.25;;;17.07;100.00
8697;BME280;4385;48.848;8.924;2022-11-14T00:07:03;97325.34;;;17.06;100.00
8697;BME280;4385;48.848;8.924;2022-11-14T00:09:29;97331.31;;;17.04;100.00
8697;BME280;4385;48.848;8.924;2022-11-14T00:11:54;97320.38;;;17.00;100.00
8697;BME280;4385;48.848;8.924;2022-11-14T00:14:20;97330.59;;;16.99;100.00
8697;BME280;4385;48.848;8.924;2022-11-14T00:16:45;97335.72;;;16.95;100.00
8697;BME280;4385;48.848;8.924;2022-11-14T00:19:11;97343.41;;;16.94;100.00
8697;BME280;4385;48.848;8.924;2022-11-14T00:21:36;97348.50;;;16.94;100.00
8697;BME280;4385;48.848;8.924;2022-11-14T00:24:02;97342.56;;;16.92;100.00
8697;BME280;4385;48.848;8.924;2022-11-14T00:26:27;97349.38;;;16.90;100.00
8697;BME280;4385;48.848;8.924;2022-11-14T00:28:53;97345.19;;;16.89;100.00
8697;BME280;4385;48.848;8.924;2022-11-14T00:31:19;97347.75;;;16.87;100.00
8697;BME280;4385;48.848;8.924;2022-11-14T00:33:44;97346.09;;;16.85;100.00
8697;BME280;4385;48.848;8.924;2022-11-14T00:36:09;97336.78;;;16.83;100.00
8697;BME280;4385;48.848;8.924;2022-11-14T00:38:35;97331.66;;;16.85;100.00
8697;BME280;4385;48.848;8.924;2022-11-14T00:41:00;97330.00;;;16.84;100.00
8697;BME280;4385;48.848;8.924;2022-11-14T00:43:25;97334.22;;;16.83;100.00
8697;BME280;4385;48.848;8.924;2022-11-14T00:45:51;97335.09;;;16.82;100.00
8697;BME280;4385;48.848;8.924;2022-11-14T00:48:16;97335.13;;;16.81;100.00
8697;BME280;4385;48.848;8.924;2022-11-14T00:50:41;97341.13;;;16.78;100.00
8697;BME280;4385;48.848;8.924;2022-11-14T00:53:07;97328.44;;;16.77;100.00
8697;BME280;4385;48.848;8.924;2022-11-14T00:55:32;97337.75;;;16.76;100.00
8697;BME280;4385;48.848;8.924;2022-11-14T00:57:57;97335.25;;;16.75;100.00
8697;BME280;4385;48.848;8.924;2022-11-14T01:00:23;97335.25;;;16.75;100.00
8697;BME280;4385;48.848;8.924;2022-11-14T01:02:48;97327.63;;;16.73;100.00
8697;BME280;4385;48.848;8.924;2022-11-14T01:05:13;97324.28;;;16.71;100.00
8697;BME280;4385;48.848;8.924;2022-11-14T01:07:38;97327.69;;;16.70;100.00
8697;BME280;4385;48.848;8.924;2022-11-14T01:10:05;97318.38;;;16.69;100.00
8697;BME280;4385;48.848;8.924;2022-11-14T01:12:30;97320.09;;;16.68;100.00
8697;BME280;4385;48.848;8.924;2022-11-14T01:14:55;97309.91;;;16.68;100.00
8697;BME280;4385;48.848;8.924;2022-11-14T01:17:21;97309.97;;;16.65;100.00
8697;BME280;4385;48.848;8.924;2022-11-14T01:19:46;97311.72;;;16.62;100.00
8697;BME280;4385;48.848;8.924;2022-11-14T01:22:11;97310.03;;;16.61;100.00
8697;BME280;4385;48.848;8.924;2022-11-14T01:24:37;97298.19;;;16.60;100.00
8697;BME280;4385;48.848;8.924;2022-11-14T01:27:02;97302.34;;;16.64;100.00
8697;BME280;4385;48.848;8.924;2022-11-14T01:29:28;97297.31;;;16.61;100.00
8697;BME280;4385;48.848;8.924;2022-11-14T01:31:53;97286.31;;;16.58;100.00
8697;BME280;4385;48.848;8.924;2022-11-14T01:34:18;97289.75;;;16.57;100.00
8697;BME280;4385;48.848;8.924;2022-11-14T01:36:43;97288.09;;;16.55;100.00
8697;BME280;4385;48.848;8.924;2022-11-14T01:39:09;97282.19;;;16.53;100.00
8697;BME280;4385;48.848;8.924;2022-11-14T01:41:34;97275.47;;;16.50;100.00
8697;BME280;4385;48.848;8.924;2022-11-14T01:43:59;97266.16;;;16.48;100.00
8697;BME280;4385;48.848;8.924;2022-11-14T01:46:28;97272.97;;;16.47;100.00
8697;BME280;4385;48.848;8.924;2022-11-14T01:48:59;97265.34;;;16.47;100.00
8697;BME280;4385;48.848;8.924;2022-11-14T01:51:45;97267.06;;;16.45;100.00
8697;BME280;4385;48.848;8.924;2022-11-14T01:54:22;97263.69;;;16.44;100.00
8697;BME280;4385;48.848;8.924;2022-11-14T01:56:54;97262.00;;;16.43;100.00
8697;BME280;4385;48.848;8.924;2022-11-14T01:59:24;97267.13;;;16.42;100.00
8697;BME280;4385;48.848;8.924;2022-11-14T02:01:52;97268.81;;;16.41;100.00
8697;BME280;4385;48.848;8.924;2022-11-14T02:04:28;97262.03;;;16.42;100.00
8697;BME280;4385;48.848;8.924;2022-11-14T02:06:57;97258.66;;;16.40;100.00
8697;BME280;4385;48.848;8.924;2022-11-14T02:09:27;97249.38;;;16.39;100.00
8697;BME280;4385;48.848;8.924;2022-11-14T02:11:54;97241.78;;;16.37;100.00
8697;BME280;4385;48.848;8.924;2022-11-14T02:14:21;97238.41;;;16.35;100.00
8697;BME280;4385;48.848;8.924;2022-11-14T02:16:47;97248.56;;;16.37;100.00
8697;BME280;4385;48.848;8.924;2022-11-14T02:19:14;97247.78;;;16.33;100.00
8697;BME280;4385;48.848;8.924;2022-11-14T02:21:39;97244.41;;;16.32;100.00
8697;BME280;4385;48.848;8.924;2022-11-14T02:24:09;97243.53;;;16.32;100.00
8697;BME280;4385;48.848;8.924;2022-11-14T02:26:34;97239.34;;;16.31;100.00
8697;BME280;4385;48.848;8.924;2022-11-14T02:29:00;97241.91;;;16.29;100.00
8697;BME280;4385;48.848;8.924;2022-11-14T02:31:25;97236.81;;;16.29;100.00
8697;BME280;4385;48.848;8.924;2022-11-14T02:33:50;97244.47;;;16.28;100.00
8697;BME280;4385;48.848;8.924;2022-11-14T02:36:16;97252.09;;;16.28;100.00
8697;BME280;4385;48.848;8.924;2022-11-14T02:38:41;97252.97;;;16.27;100.00
8697;BME280;4385;48.848;8.924;2022-11-14T02:41:06;97252.13;;;16.26;100.00
8697;BME280;4385;48.848;8.924;2022-11-14T02:43:32;97252.97;;;16.27;100.00
8697;BME280;4385;48.848;8.924;2022-11-14T02:45:57;97254.66;;;16.26;100.00
8697;BME280;4385;48.848;8.924;2022-11-14T02:48:22;97256.38;;;16.24;100.00
8697;BME280;4385;48.848;8.924;2022-11-14T02:50:48;97260.66;;;16.24;100.00
8697;BME280;4385;48.848;8.924;2022-11-14T02:53:13;97252.19;;;16.23;100.00
8697;BME280;4385;48.848;8.924;2022-11-14T02:55:38;97240.34;;;16.22;100.00
8697;BME280;4385;48.848;8.924;2022-11-14T02:58:04;97239.47;;;16.23;100.00
8697;BME280;4385;48.848;8.924;2022-11-14T03:00:29;97227.66;;;16.20;100.00
8697;BME280;4385;48.848;8.924;2022-11-14T03:02:54;97232.78;;;16.19;100.00
8697;BME280;4385;48.848;8.924;2022-11-14T03:05:20;97228.53;;;16.18;100.00
8697;BME280;4385;48.848;8.924;2022-11-14T03:07:46;97233.63;;;16.18;100.00
8697;BME280;4385;48.848;8.924;2022-11-14T03:10:11;97236.13;;;16.19;100.00
8697;BME280;4385;48.848;8.924;2022-11-14T03:12:38;97237.03;;;16.17;100.00
8697;BME280;4385;48.848;8.924;2022-11-14T03:15:06;97229.44;;;16.15;100.00
8697;BME280;4385;48.848;8.924;2022-11-14T03:17:32;97231.97;;;16.15;100.00
8697;BME280;4385;48.848;8.924;2022-11-14T03:19:58;97228.59;;;16.15;100.00
8697;BME280;4385;48.848;8.924;2022-11-14T03:22:24;97241.28;;;16.15;100.00
8697;BME280;4385;48.848;8.924;2022-11-14T03:24:49;97236.22;;;16.15;100.00
8697;BME280;4385;48.848;8.924;2022-11-14T03:27:14;97230.34;;;16.13;100.00
8697;BME280;4385;48.848;8.924;2022-11-14T03:29:40;97237.09;;;16.12;100.00
8697;BME280;4385;48.848;8.924;2022-11-14T03:32:05;97226.94;;;16.12;100.00
8697;BME280;4385;48.848;8.924;2022-11-14T03:34:30;97226.97;;;16.11;100.00
8697;BME280;4385;48.848;8.924;2022-11-14T03:36:56;97221.03;;;16.10;100.00
8697;BME280;4385;48.848;8.924;2022-11-14T03:39:21;97220.22;;;16.10;100.00
8697;BME280;4385;48.848;8.924;2022-11-14T03:41:46;97220.25;;;16.08;100.00
8697;BME280;4385;48.848;8.924;2022-11-14T03:44:11;97222.81;;;16.06;100.00
8697;BME280;4385;48.848;8.924;2022-11-14T03:46:37;97218.56;;;16.05;100.00
8697;BME280;4385;48.848;8.924;2022-11-14T03:49:02;97207.59;;;16.03;100.00
8697;BME280;4385;48.848;8.924;2022-11-14T03:51:28;97206.72;;;16.04;100.00
8697;BME280;4385;48.848;8.924;2022-11-14T03:53:53;97210.97;;;16.04;100.00
8697;BME280;4385;48.848;8.924;2022-11-14T03:56:18;97199.97;;;16.03;100.00
8697;BME280;4385;48.848;8.924;2022-11-14T03:58:44;97190.63;;;16.04;100.00
8697;BME280;4385;48.848;8.924;2022-11-14T04:01:09;97184.72;;;16.03;100.00
8697;BME280;4385;48.848;8.924;2022-11-14T04:03:34;97180.50;;;16.02;100.00
8697;BME280;4385;48.848;8.924;2022-11-14T04:05:59;97178.81;;;16.03;100.00
8697;BME280;4385;48.848;8.924;2022-11-14T04:08:25;97177.97;;;16.02;100.00
8697;BME280;4385;48.848;8.924;2022-11-14T04:10:50;97177.13;;;16.02;100.00
8697;BME280;4385;48.848;8.924;2022-11-14T04:13:15;97190.69;;;16.01;100.00
8697;BME280;4385;48.848;8.924;2022-11-14T04:15:42;97193.25;;;15.99;100.00
8697;BME280;4385;48.848;8.924;2022-11-14T04:18:07;97205.13;;;16.00;100.00
8697;BME280;4385;48.848;8.924;2022-11-14T04:20:32;97205.13;;;15.97;100.00
8697;BME280;4385;48.848;8.924;2022-11-14T04:22:57;97203.44;;;15.96;100.00
8697;BME280;4385;48.848;8.924;2022-11-14T04:25:23;97207.66;;;15.95;100.00
8697;BME280;4385;48.848;8.924;2022-11-14T04:27:48;97201.78;;;15.95;100.00
8697;BME280;4385;48.848;8.924;2022-11-14T04:30:13;97189.91;;;15.94;100.00
8697;BME280;4385;48.848;8.924;2022-11-14T04:32:38;97188.25;;;15.93;100.00
8697;BME280;4385;48.848;8.924;2022-11-14T04:35:04;97195.00;;;15.94;100.00
8697;BME280;4385;48.848;8.924;2022-11-14T04:37:29;97191.69;;;15.90;100.00
8697;BME280;4385;48.848;8.924;2022-11-14T04:39:55;97190.88;;;15.88;100.00
8697;BME280;4385;48.848;8.924;2022-11-14T04:42:24;97189.19;;;15.87;100.00
8697;BME280;4385;48.848;8.924;2022-11-14T04:44:50;97195.09;;;15.88;100.00
8697;BME280;4385;48.848;8.924;2022-11-14T04:47:15;97195.97;;;15.87;100.00
8697;BME280;4385;48.848;8.924;2022-11-14T04:49:40;97190.88;;;15.87;100.00
8697;BME280;4385;48.848;8.924;2022-11-14T04:52:06;97188.34;;;15.87;100.00
8697;BME280;4385;48.848;8.924;2022-11-14T04:54:31;97185.81;;;15.85;100.00
8697;BME280;4385;48.848;8.924;2022-11-14T04:56:56;97170.59;;;15.85;100.00
8697;BME280;4385;48.848;8.924;2022-11-14T04:59:21;97164.66;;;15.84;100.00
8697;BME280;4385;48.848;8.924;2022-11-14T05:01:47;97140.94;;;15.86;100.00
8697;BME280;4385;48.848;8.924;2022-11-14T05:04:12;97135.88;;;15.86;100.00
8697;BME280;4385;48.848;8.924;2022-11-14T05:06:37;97127.38;;;15.85;100.00
8697;BME280;4385;48.848;8.924;2022-11-14T05:09:02;97140.94;;;15.86;100.00
8697;BME280;4385;48.848;8.924;2022-11-14T05:11:28;97145.16;;;15.87;100.00
8697;BME280;4385;48.848;8.924;2022-11-14T05:13:53;97164.59;;;15.88;100.00
8697;BME280;4385;48.848;8.924;2022-11-14T05:16:18;97166.31;;;15.89;100.00
8697;BME280;4385;48.848;8.924;2022-11-14T05:18:44;97160.41;;;15.85;100.00
8697;BME280;4385;48.848;8.924;2022-11-14T05:21:12;97157.91;;;15.83;100.00
8697;BME280;4385;48.848;8.924;2022-11-14T05:23:38;97155.41;;;15.80;100.00
8697;BME280;4385;48.848;8.924;2022-11-14T05:26:07;97155.44;;;15.79;100.00
8697;BME280;4385;48.848;8.924;2022-11-14T05:28:33;97141.88;;;15.78;100.00
8697;BME280;4385;48.848;8.924;2022-11-14T05:31:08;97143.63;;;15.76;100.00
8697;BME280;4385;48.848;8.924;2022-11-14T05:33:34;97146.19;;;15.76;100.00
8697;BME280;4385;48.848;8.924;2022-11-14T05:36:04;97146.19;;;15.76;100.00
8697;BME280;4385;48.848;8.924;2022-11-14T05:38:29;97141.94;;;15.75;100.00
8697;BME280;4385;48.848;8.924;2022-11-14T05:40:55;97136.88;;;15.75;100.00
8697;BME280;4385;48.848;8.924;2022-11-14T05:43:20;97128.41;;;15.76;100.00
8697;BME280;4385;48.848;8.924;2022-11-14T05:45:45;97128.41;;;15.75;100.00
8697;BME280;4385;48.848;8.924;2022-11-14T05:48:11;97119.94;;;15.76;100.00
8697;BME280;4385;48.848;8.924;2022-11-14T05:50:36;97125.84;;;15.76;100.00
8697;BME280;4385;48.848;8.924;2022-11-14T05:53:02;97120.78;;;15.76;100.00
8697;BME280;4385;48.848;8.924;2022-11-14T05:55:28;97128.31;;;15.81;100.00
8697;BME280;4385;48.848;8.924;2022-11-14T05:57:57;97125.84;;;15.76;100.00
8697;BME280;4385;48.848;8.924;2022-11-14T06:00:22;97136.88;;;15.75;100.00
8697;BME280;4385;48.848;8.924;2022-11-14T06:02:51;97130.97;;;15.75;100.00
8697;BME280;4385;48.848;8.924;2022-11-14T06:05:17;97138.59;;;15.75;100.00
8697;BME280;4385;48.848;8.924;2022-11-14T06:07:42;97137.72;;;15.74;100.00
8697;BME280;4385;48.848;8.924;2022-11-14T06:10:08;97136.91;;;15.72;100.00
8697;BME280;4385;48.848;8.924;2022-11-14T06:12:33;97136.09;;;15.71;100.00
8697;BME280;4385;48.848;8.924;2022-11-14T06:14:58;97139.50;;;15.69;100.00
8697;BME280;4385;48.848;8.924;2022-11-14T06:17:23;97142.91;;;15.68;100.00
8697;BME280;4385;48.848;8.924;2022-11-14T06:19:49;97158.16;;;15.68;100.00
8697;BME280;4385;48.848;8.924;2022-11-14T06:22:14;97162.41;;;15.66;100.00
8697;BME280;4385;48.848;8.924;2022-11-14T06:24:39;97163.28;;;15.65;100.00
8697;BME280;4385;48.848;8.924;2022-11-14T06:27:04;97165.88;;;15.62;100.00
8697;BME280;4385;48.848;8.924;2022-11-14T06:29:30;97165.00;;;15.63;100.00
8697;BME280;4385;48.848;8.924;2022-11-14T06:31:55;97172.63;;;15.63;100.00
8697;BME280;4385;48.848;8.924;2022-11-14T06:34:20;97178.56;;;15.62;100.00
8697;BME280;4385;48.848;8.924;2022-11-14T06:36:45;97166.75;;;15.61;100.00
8697;BME280;4385;48.848;8.924;2022-11-14T06:39:11;97159.97;;;15.59;100.00
8697;BME280;4385;48.848;8.924;2022-11-14T06:41:36;97173.53;;;15.58;100.00
8697;BME280;4385;48.848;8.924;2022-11-14T06:44:01;97187.09;;;15.59;100.00
8697;BME280;4385;48.848;8.924;2022-11-14T06:46:26;97182.00;;;15.61;100.00
8697;BME280;4385;48.848;8.924;2022-11-14T06:48:52;97175.94;;;15.68;100.00
8697;BME280;4385;48.848;8.924;2022-11-14T06:51:17;97186.88;;;15.73;100.00
8697;BME280;4385;48.848;8.924;2022-11-14T06:53:44;97178.34;;;15.77;100.00
8697;BME280;4385;48.848;8.924;2022-11-14T06:56:14;97179.84;;;15.88;100.00
8697;BME280;4385;48.848;8.924;2022-11-14T06:58:45;97185.59;;;16.02;100.00
8697;BME280;4385;48.848;8.924;2022-11-14T07:01:16;97180.38;;;16.10;100.00
8697;BME280;4385;48.848;8.924;2022-11-14T07:03:42;97187.03;;;16.17;100.00
8697;BME280;4385;48.848;8.924;2022-11-14T07:06:09;97175.09;;;16.21;100.00
8697;BME280;4385;48.848;8.924;2022-11-14T07:08:35;97180.16;;;16.21;100.00
8697;BME280;4385;48.848;8.924;2022-11-14T07:11:09;97170.78;;;16.25;100.00
8697;BME280;4385;48.848;8.924;2022-11-14T07:13:35;97170.69;;;16.31;100.00
8697;BME280;4385;48.848;8.924;2022-11-14T07:16:01;97168.94;;;16.35;100.00
8697;BME280;4385;48.848;8.924;2022-11-14T07:18:29;97173.06;;;16.40;100.00
8697;BME280;4385;48.848;8.924;2022-11-14T07:20:59;97170.53;;;16.39;100.00
8697;BME280;4385;48.848;8.924;2022-11-14T07:23:25;97162.00;;;16.41;100.00
8697;BME280;4385;48.848;8.924;2022-11-14T07:25:51;97169.56;;;16.44;100.00
8697;BME280;4385;48.848;8.924;2022-11-14T07:28:17;97171.28;;;16.45;100.00
8697;BME280;4385;48.848;8.924;2022-11-14T07:30:42;97166.94;;;16.49;100.00
8697;BME280;4385;48.848;8.924;2022-11-14T07:33:07;97169.50;;;16.49;100.00
8697;BME280;4385;48.848;8.924;2022-11-14T07:35:34;97176.13;;;16.58;100.00
8697;BME280;4385;48.848;8.924;2022-11-14T07:38:00;97166.78;;;16.57;100.00
8697;BME280;4385;48.848;8.924;2022-11-14T07:40:26;97165.88;;;16.61;100.00
8697;BME280;4385;48.848;8.924;2022-11-14T07:42:56;97170.91;;;16.64;100.00
8697;BME280;4385;48.848;8.924;2022-11-14T07:45:22;97168.28;;;16.69;100.00
8697;BME280;4385;48.848;8.924;2022-11-14T07:47:47;97175.84;;;16.72;100.00
8697;BME280;4385;48.848;8.924;2022-11-14T07:50:12;97174.09;;;16.74;100.00
8697;BME280;4385;48.848;8.924;2022-11-14T07:52:38;97174.03;;;16.77;100.00
8697;BME280;4385;48.848;8.924;2022-11-14T07:55:03;97179.03;;;16.82;100.00
8697;BME280;4385;48.848;8.924;2022-11-14T07:57:28;97175.53;;;16.88;100.00
8697;BME280;4385;48.848;8.924;2022-11-14T07:59:54;97189.91;;;16.90;100.00
8697;BME280;4385;48.848;8.924;2022-11-14T08:02:19;97189.03;;;16.91;100.00
8697;BME280;4385;48.848;8.924;2022-11-14T08:04:44;97188.94;;;16.94;100.00
8697;BME280;4385;48.848;8.924;2022-11-14T08:07:09;97185.50;;;16.99;100.00
8697;BME280;4385;48.848;8.924;2022-11-14T08:09:35;97188.00;;;17.00;100.00
8697;BME280;4385;48.848;8.924;2022-11-14T08:12:00;97200.66;;;17.03;100.00
8697;BME280;4385;48.848;8.924;2022-11-14T08:14:26;97197.22;;;17.06;100.00
8697;BME280;4385;48.848;8.924;2022-11-14T08:16:51;97201.44;;;17.08;100.00
8697;BME280;4385;48.848;8.924;2022-11-14T08:19:16;97199.69;;;17.11;100.00
8697;BME280;4385;48.848;8.924;2022-11-14T08:21:43;97203.88;;;17.13;100.00
8697;BME280;4385;48.848;8.924;2022-11-14T08:24:08;97197.91;;;17.16;100.00
8697;BME280;4385;48.848;8.924;2022-11-14T08:26:34;97194.47;;;17.17;100.00
8697;BME280;4385;48.848;8.924;2022-11-14T08:28:59;97199.56;;;17.17;100.00
8697;BME280;4385;48.848;8.924;2022-11-14T08:31:24;97201.22;;;17.18;100.00
8697;BME280;4385;48.848;8.924;2022-11-14T08:33:51;97202.06;;;17.18;100.00
8697;BME280;4385;48.848;8.924;2022-11-14T08:36:16;97214.78;;;17.20;100.00
8697;BME280;4385;48.848;8.924;2022-11-14T08:38:42;97204.69;;;17.15;100.00
8697;BME280;4385;48.848;8.924;2022-11-14T08:41:07;97213.25;;;17.13;100.00
8697;BME280;4385;48.848;8.924;2022-11-14T08:43:32;97211.53;;;17.12;100.00
8697;BME280;4385;48.848;8.924;2022-11-14T08:45:58;97214.13;;;17.10;100.00
8697;BME280;4385;48.848;8.924;2022-11-14T08:48:24;97217.47;;;17.12;100.00
8697;BME280;4385;48.848;8.924;2022-11-14T08:50:49;97223.44;;;17.13;100.00
8697;BME280;4385;48.848;8.924;2022-11-14T08:53:15;97222.56;;;17.12;100.00
8697;BME280;4385;48.848;8.924;2022-11-14T08:55:47;97232.72;;;17.14;100.00
8697;BME280;4385;48.848;8.924;2022-11-14T08:58:12;97228.50;;;17.13;100.00
8697;BME280;4385;48.848;8.924;2022-11-14T09:00:38;97231.88;;;17.13;100.00
8697;BME280;4385;48.848;8.924;2022-11-14T09:03:21;97238.63;;;17.16;100.00
8697;BME280;4385;48.848;8.924;2022-11-14T09:05:51;97223.88;;;17.30;100.00
8697;BME280;4385;48.848;8.924;2022-11-14T09:08:16;97222.00;;;17.39;100.00
8697;BME280;4385;48.848;8.924;2022-11-14T09:10:42;97224.38;;;17.47;100.00
8697;BME280;4385;48.848;8.924;2022-11-14T09:13:07;97231.16;;;17.48;100.00
8697;BME280;4385;48.848;8.924;2022-11-14T09:15:32;97226.06;;;17.48;100.00
8697;BME280;4385;48.848;8.924;2022-11-14T09:17:58;97226.94;;;17.47;100.00
8697;BME280;4385;48.848;8.924;2022-11-14T09:20:24;97225.28;;;17.45;100.00
8697;BME280;4385;48.848;8.924;2022-11-14T09:22:50;97231.13;;;17.49;100.00
8697;BME280;4385;48.848;8.924;2022-11-14T09:25:19;97230.22;;;17.52;100.00
8697;BME280;4385;48.848;8.924;2022-11-14T09:27:46;97219.91;;;17.58;100.00
8697;BME280;4385;48.848;8.924;2022-11-14T09:30:12;97223.13;;;17.65;100.00
8697;BME280;4385;48.848;8.924;2022-11-14T09:32:37;97213.59;;;17.73;100.00
8697;BME280;4385;48.848;8.924;2022-11-14T09:35:03;97212.75;;;17.73;100.00
8697;BME280;4385;48.848;8.924;2022-11-14T09:37:28;97222.09;;;17.74;100.00
8697;BME280;4385;48.848;8.924;2022-11-14T09:39:54;97211.88;;;17.75;100.00
8697;BME280;4385;48.848;8.924;2022-11-14T09:42:53;97216.19;;;17.72;100.00
8697;BME280;4385;48.848;8.924;2022-11-14T09:45:22;97214.44;;;17.74;100.00
8697;BME280;4385;48.848;8.924;2022-11-14T09:47:53;97227.09;;;17.78;100.00
8697;BME280;4385;48.848;8.924;2022-11-14T09:50:28;97225.25;;;17.83;100.00
8697;BME280;4385;48.848;8.924;2022-11-14T09:52:58;97215.75;;;17.90;100.00
8697;BME280;4385;48.848;8.924;2022-11-14T09:55:30;97203.88;;;17.89;100.00
8697;BME280;4385;48.848;8.924;2022-11-14T09:57:56;97212.25;;;17.94;100.00
8697;BME280;4385;48.848;8.924;2022-11-14T10:00:27;97205.41;;;17.97;100.00
8697;BME280;4385;48.848;8.924;2022-11-14T10:03:06;97203.63;;;18.00;100.00
8697;BME280;4385;48.848;8.924;2022-11-14T10:06:15;97203.47;;;18.06;100.00
8697;BME280;4385;48.848;8.924;2022-11-14T10:14:40;97197.03;;;18.26;100.00
8697;BME280;4385;48.848;8.924;2022-11-14T10:19:56;97195.00;;;18.39;100.00
8697;BME280;4385;48.848;8.924;2022-11-14T10:28:38;97198.06;;;18.52;100.00
8697;BME280;4385;48.848;8.924;2022-11-14T10:33:59;97197.94;;;18.57;100.00
8697;BME280;4385;48.848;8.924;2022-11-14T10:37:22;97201.31;;;18.57;100.00
8697;BME280;4385;48.848;8.924;2022-11-14T10:39:37;97196.13;;;18.61;100.00
8697;BME280;4385;48.848;8.924;2022-11-14T10:42:11;97195.28;;;18.60;100.00
8697;BME280;4385;48.848;8.924;2022-11-14T10:44:46;97197.81;;;18.62;100.00
8697;BME280;4385;48.848;8.924;2022-11-14T10:47:17;97193.72;;;18.56;100.00
8697;BME280;4385;48.848;8.924;2022-11-14T10:49:45;97197.97;;;18.55;100.00
8697;BME280;4385;48.848;8.924;2022-11-14T10:52:14;97191.19;;;18.54;100.00
8697;BME280;4385;48.848;8.924;2022-11-14T10:54:45;97195.53;;;18.51;100.00
8697;BME280;4385;48.848;8.924;2022-11-14T10:57:20;97189.53;;;18.53;100.00
8697;BME280;4385;48.848;8.924;2022-11-14T10:59:45;97186.00;;;18.57;100.00
8697;BME280;4385;48.848;8.924;2022-11-14T11:02:12;97188.47;;;18.61;100.00
8697;BME280;4385;48.848;8.924;2022-11-14T11:04:42;97187.41;;;18.68;100.00
8697;BME280;4385;48.848;8.924;2022-11-14T11:09:39;97188.94;;;18.75;100.00
8697;BME280;4385;48.848;8.924;2022-11-14T11:12:39;97183.00;;;18.75;100.00
8697;BME280;4385;48.848;8.924;2022-11-14T11:15:14;97182.81;;;18.81;100.00
8697;BME280;4385;48.848;8.924;2022-11-14T11:18:00;97178.28;;;18.91;100.00
8697;BME280;4385;48.848;8.924;2022-11-14T11:23:26;97171.50;;;18.90;100.00
8697;BME280;4385;48.848;8.924;2022-11-14T11:26:06;97175.78;;;18.89;100.00
8697;BME280;4385;48.848;8.924;2022-11-14T11:28:35;97173.97;;;18.93;100.00
8697;BME280;4385;48.848;8.924;2022-11-14T11:31:08;97173.91;;;18.94;100.00
8697;BME280;4385;48.848;8.924;2022-11-14T11:33:38;97175.69;;;18.92;100.00
8697;BME280;4385;48.848;8.924;2022-11-14T11:36:16;97171.41;;;18.93;100.00
8697;BME280;4385;48.848;8.924;2022-11-14T11:38:43;97173.16;;;18.92;100.00
8697;BME280;4385;48.848;8.924;2022-11-14T11:41:20;97171.13;;;19.02;100.00
8697;BME280;4385;48.848;8.924;2022-11-14T11:44:00;97166.44;;;18.88;100.00
8697;BME280;4385;48.848;8.924;2022-11-14T11:49:14;97157.16;;;18.86;100.00
8697;BME280;4385;48.848;8.924;2022-11-14T11:51:42;97161.41;;;18.85;100.00
8697;BME280;4385;48.848;8.924;2022-11-14T11:54:17;97159.72;;;18.86;100.00
8697;BME280;4385;48.848;8.924;2022-11-14T11:56:46;97168.16;;;18.88;100.00
8697;BME280;4385;48.848;8.924;2022-11-14T12:01:40;97154.34;;;18.95;100.00
8697;BME280;4385;48.848;8.924;2022-11-14T12:04:06;97158.41;;;19.01;100.00
8697;BME280;4385;48.848;8.924;2022-11-14T12:06:40;97147.19;;;19.06;100.00
8697;BME280;4385;48.848;8.924;2022-11-14T12:09:18;97147.78;;;19.16;100.00
8697;BME280;4385;48.848;8.924;2022-11-14T12:11:54;97146.66;;;19.25;100.00
8697;BME280;4385;48.848;8.924;2022-11-14T12:20:02;97149.94;;;19.29;100.00
8697;BME280;4385;48.848;8.924;2022-11-14T12:28:37;97138.13;;;19.26;100.00
8697;BME280;4385;48.848;8.924;2022-11-14T12:31:10;97142.47;;;19.23;100.00
8697;BME280;4385;48.848;8.924;2022-11-14T12:33:46;97145.97;;;19.20;100.00
8697;BME280;4385;48.848;8.924;2022-11-14T12:36:15;97145.16;;;19.18;100.00
8697;BME280;4385;48.848;8.924;2022-11-14T12:38:43;97147.72;;;19.18;100.00
8697;BME280;4385;48.848;8.924;2022-11-14T12:41:10;97146.94;;;19.16;100.00
8697;BME280;4385;48.848;8.924;2022-11-14T12:43:37;97152.94;;;19.15;100.00
8697;BME280;4385;48.848;8.924;2022-11-14T12:46:08;97151.31;;;19.12;100.00
8697;BME280;4385;48.848;8.924;2022-11-14T12:48:40;97144.53;;;19.11;100.00
8697;BME280;4385;48.848;8.924;2022-11-14T12:53:53;97147.03;;;19.13;100.00
8697;BME280;4385;48.848;8.924;2022-11-14T13:09:10;97132.91;;;19.29;100.00
8697;BME280;4385;48.848;8.924;2022-11-14T13:11:41;97133.63;;;19.35;100.00
8697;BME280;4385;48.848;8.924;2022-11-14T13:14:26;97127.41;;;19.42;100.00
8697;BME280;4385;48.848;8.924;2022-11-14T13:17:24;97122.00;;;19.51;100.00
8697;BME280;4385;48.848;8.924;2022-11-14T13:20:30;97112.28;;;19.63;100.00
8697;BME280;4385;48.848;8.924;2022-11-14T13:33:54;97110.53;;;19.63;100.00
8697;BME280;4385;48.848;8.924;2022-11-14T13:44:55;97105.78;;;19.52;100.00
8697;BME280;4385;48.848;8.924;2022-11-14T13:52:40;97111.84;;;19.50;100.00
8697;BME280;4385;48.848;8.924;2022-11-14T13:55:06;97105.94;;;19.48;100.00
8697;BME280;4385;48.848;8.924;2022-11-14T13:57:46;97100.88;;;19.46;100.00
8697;BME280;4385;48.848;8.924;2022-11-14T14:00:17;97100.88;;;19.46;100.00
8697;BME280;4385;48.848;8.924;2022-11-14T14:02:55;97098.41;;;19.43;100.00
8697;BME280;4385;48.848;8.924;2022-11-14T14:16:27;97099.09;;;19.48;100.00
8697;BME280;4385;48.848;8.924;2022-11-14T14:19:06;97094.00;;;19.48;100.00
8697;BME280;4385;48.848;8.924;2022-11-14T14:21:56;97100.72;;;19.51;100.00
8697;BME280;4385;48.848;8.924;2022-11-14T14:27:33;97095.41;;;19.57;100.00
8697;BME280;4385;48.848;8.924;2022-11-14T14:30:03;97098.75;;;19.59;100.00
8697;BME280;4385;48.848;8.924;2022-11-14T14:32:32;97089.38;;;19.60;100.00
8697;BME280;4385;48.848;8.924;2022-11-14T14:34:57;97096.16;;;19.61;100.00
8697;BME280;4385;48.848;8.924;2022-11-14T14:37:26;97091.03;;;19.61;100.00
8697;BME280;4385;48.848;8.924;2022-11-14T14:40:04;97100.38;;;19.62;100.00
8697;BME280;4385;48.848;8.924;2022-11-14T14:42:36;97087.59;;;19.62;100.00
8697;BME280;4385;48.848;8.924;2022-11-14T14:45:02;97102.72;;;19.68;100.00
8697;BME280;4385;48.848;8.924;2022-11-14T14:50:01;97101.06;;;19.67;100.00
8697;BME280;4385;48.848;8.924;2022-11-14T14:52:32;97106.06;;;19.70;100.00